Map

Track Data

SID SEASON NUMBER BASIN SUBBASIN NAME ISO_TIME NATURE LAT LON WMO_WIND WMO_PRES WMO_AGENCY TRACK_TYPE DIST2LAND LANDFALL IFLAG USA_AGENCY USA_ATCF_ID USA_LAT USA_LON USA_RECORD USA_STATUS USA_WIND USA_PRES USA_SSHS USA_R34_NE USA_R34_SE USA_R34_SW USA_R34_NW USA_R50_NE USA_R50_SE USA_R50_SW USA_R50_NW USA_R64_NE USA_R64_SE USA_R64_SW USA_R64_NW USA_POCI USA_ROCI USA_RMW USA_EYE TOKYO_LAT TOKYO_LON TOKYO_GRADE TOKYO_WIND TOKYO_PRES TOKYO_R50_DIR TOKYO_R50_LONG TOKYO_R50_SHORT TOKYO_R30_DIR TOKYO_R30_LONG TOKYO_R30_SHORT TOKYO_LAND CMA_LAT CMA_LON CMA_CAT CMA_WIND CMA_PRES HKO_LAT HKO_LON HKO_CAT HKO_WIND HKO_PRES NEWDELHI_LAT NEWDELHI_LON NEWDELHI_GRADE NEWDELHI_WIND NEWDELHI_PRES NEWDELHI_CI NEWDELHI_DP NEWDELHI_POCI REUNION_LAT REUNION_LON REUNION_TYPE REUNION_WIND REUNION_PRES REUNION_TNUM REUNION_CI REUNION_RMW REUNION_R34_NE REUNION_R34_SE REUNION_R34_SW REUNION_R34_NW REUNION_R50_NE REUNION_R50_SE REUNION_R50_SW REUNION_R50_NW REUNION_R64_NE REUNION_R64_SE REUNION_R64_SW REUNION_R64_NW BOM_LAT BOM_LON BOM_TYPE BOM_WIND BOM_PRES BOM_TNUM BOM_CI BOM_RMW BOM_R34_NE BOM_R34_SE BOM_R34_SW BOM_R34_NW BOM_R50_NE BOM_R50_SE BOM_R50_SW BOM_R50_NW BOM_R64_NE BOM_R64_SE BOM_R64_SW BOM_R64_NW BOM_ROCI BOM_POCI BOM_EYE BOM_POS_METHOD BOM_PRES_METHOD NADI_LAT NADI_LON NADI_CAT NADI_WIND NADI_PRES WELLINGTON_LAT WELLINGTON_LON WELLINGTON_WIND WELLINGTON_PRES DS824_LAT DS824_LON DS824_STAGE DS824_WIND DS824_PRES TD9636_LAT TD9636_LON TD9636_STAGE TD9636_WIND TD9636_PRES TD9635_LAT TD9635_LON TD9635_WIND TD9635_PRES TD9635_ROCI NEUMANN_LAT NEUMANN_LON NEUMANN_CLASS NEUMANN_WIND NEUMANN_PRES MLC_LAT MLC_LON MLC_CLASS MLC_WIND MLC_PRES USA_GUST BOM_GUST BOM_GUST_PER REUNION_GUST REUNION_GUST_PER USA_SEAHGT USA_SEARAD_NE USA_SEARAD_SE USA_SEARAD_SW USA_SEARAD_NW STORM_SPEED STORM_DIR
1960132N09070 1960 20 NI AS NOT_NAMED 1960-05-10 18:00:00 TS 8.90000 69.9000 main 675 675 O________O____ jtwc_io IO021960 8.90000 69.9000 -1 8.90000 69.9000 TC 2 313
1960132N09070 1960 20 NI AS NOT_NAMED 1960-05-10 21:00:00 TS 8.98500 69.8150 main 679 679 P________P____ IO021960 8.98500 69.8150 -1 8.98500 69.8150 TC 3 315
1960132N09070 1960 20 NI AS NOT_NAMED 1960-05-11 00:00:00 TS 9.10000 69.7000 main 683 683 O________O____ jtwc_io IO021960 9.10000 69.7000 -1 9.10000 69.7000 TC 25 4 315
1960132N09070 1960 20 NI AS NOT_NAMED 1960-05-11 03:00:00 TS 9.27332 69.5266 main 692 692 P________PO___ IO021960 9.26998 69.5300 -1 9.26998 69.5300 TC 25 9.30000 69.5000 1 6 315
1960132N09070 1960 20 NI AS NOT_NAMED 1960-05-11 06:00:00 TS 9.51128 69.2891 main 702 702 O________OP___ jtwc_io IO021960 9.50000 69.3000 -1 9.50000 69.3000 TC 25 9.55640 69.2456 1 7 315
1960132N09070 1960 20 NI AS NOT_NAMED 1960-05-11 09:00:00 TS 9.80280 68.9981 main 716 715 P________PP___ IO021960 9.80005 69.0001 -1 9.80005 69.0001 TC 25 9.81017 68.9928 1 8 315
1960132N09070 1960 20 NI AS NOT_NAMED 1960-05-11 12:00:00 TS 10.0863 68.7145 main 730 730 O________OP___ jtwc_io IO021960 10.1000 68.7000 -1 10.1000 68.7000 TC 25 10.0588 68.7436 1 7 315
1960132N09070 1960 20 NI AS NOT_NAMED 1960-05-11 15:00:00 TS 10.3050 68.4949 main 741 741 P________PO___ IO021960 10.3074 68.4924 -1 10.3074 68.4924 TC 25 10.3000 68.5000 1 6 315
1960132N09070 1960 20 NI AS NOT_NAMED 1960-05-11 18:00:00 TS 10.5107 68.2879 main 753 753 O________OP___ jtwc_io IO021960 10.5000 68.3000 -1 10.5000 68.3000 TC 25 10.5321 68.2636 1 6 315
1960132N09070 1960 20 NI AS NOT_NAMED 1960-05-11 21:00:00 TS 10.7525 68.0450 main 773 773 P________PP___ IO021960 10.7500 68.0500 -1 10.7500 68.0500 TC 25 10.7574 68.0348 1 7 315
1960132N09070 1960 20 NI AS NOT_NAMED 1960-05-12 00:00:00 TS 10.9930 67.8046 main 788 788 O________OP___ jtwc_io IO021960 11.0000 67.8000 -1 11.0000 67.8000 TC 25 10.9790 67.8136 1 6 315
1960132N09070 1960 20 NI AS NOT_NAMED 1960-05-12 03:00:00 TS 11.2000 67.5949 main 803 803 P________PO___ IO021960 11.2000 67.5924 -1 11.2000 67.5924 TC 25 11.2000 67.6000 1 6 316
1960132N09070 1960 20 NI AS NOT_NAMED 1960-05-12 06:00:00 TS 11.4110 67.3976 main 816 810 O________OP___ jtwc_io IO021960 11.4000 67.4000 -1 11.4000 67.4000 TC 25 11.4331 67.3927 1 6 319
1960132N09070 1960 20 NI AS NOT_NAMED 1960-05-12 09:00:00 TS 11.6550 67.1975 main 818 818 P________PP___ IO021960 11.6500 67.2000 -1 11.6500 67.2000 TC 25 11.6649 67.1924 1 6 321
1960132N09070 1960 20 NI AS NOT_NAMED 1960-05-12 12:00:00 TS 11.8964 66.9986 main 827 827 O________OP___ jtwc_io IO021960 11.9000 67.0000 -1 11.9000 67.0000 TC 25 11.8893 66.9959 1 6 319
1960132N09070 1960 20 NI AS NOT_NAMED 1960-05-12 15:00:00 TS 12.1100 66.8000 main 837 833 P________PO___ IO021960 12.1150 66.8000 -1 12.1150 66.8000 TC 25 12.1000 66.8000 1 6 316
1960132N09070 1960 20 NI AS NOT_NAMED 1960-05-12 18:00:00 TS 12.2924 66.6026 main 848 848 O________OP___ jtwc_io IO021960 12.3000 66.6000 -1 12.3000 66.6000 TC 25 12.2771 66.6079 1 5 311
1960132N09070 1960 20 NI AS NOT_NAMED 1960-05-12 21:00:00 TS 12.4474 66.4048 main 864 860 P________PP___ IO021960 12.4500 66.3999 -1 12.4500 66.3999 TC 25 12.4424 66.4146 1 5 309
1960132N09070 1960 20 NI AS NOT_NAMED 1960-05-13 00:00:00 TS 12.6038 66.2047 main 876 876 O________OP___ jtwc_io IO021960 12.6000 66.2000 -1 12.6000 66.2000 TC 25 12.6115 66.2141 1 5 311
1960132N09070 1960 20 NI AS NOT_NAMED 1960-05-13 03:00:00 TS 12.7850 66.0049 main 887 887 P________PO___ IO021960 12.7775 66.0074 -1 12.7775 66.0074 TC 25 12.8000 66.0000 1 6 315
1960132N09070 1960 20 NI AS NOT_NAMED 1960-05-13 06:00:00 TS 13.0135 65.7882 main 896 896 O________OP___ jtwc_io IO021960 13.0000 65.8000 -1 13.0000 65.8000 TC 25 13.0406 65.7645 1 7 319
1960132N09070 1960 20 NI AS NOT_NAMED 1960-05-13 09:00:00 TS 13.3000 65.5434 main 911 907 P________PP___ IO021960 13.3000 65.5576 -1 13.3000 65.5576 TC 25 13.3000 65.5151 1 8 319
1960132N09070 1960 20 NI AS NOT_NAMED 1960-05-13 12:00:00 TS 13.5865 65.2861 main 918 918 O________OP___ jtwc_io IO021960 13.6000 65.3000 -1 13.6000 65.3000 TC 25 13.5594 65.2582 1 7 316
1960132N09070 1960 20 NI AS NOT_NAMED 1960-05-13 15:00:00 TS 13.8100 65.0333 main 940 932 P________PO___ IO021960 13.8150 65.0499 -1 13.8150 65.0499 TC 25 13.8000 65.0000 1 6 310
1960132N09070 1960 20 NI AS NOT_NAMED 1960-05-13 18:00:00 TS 14.0043 64.7806 main 932 893 O________OP___ jtwc_io IO021960 14.0000 64.8000 -1 14.0000 64.8000 TC 25 14.0128 64.7418 1 6 309
1960132N09070 1960 20 NI AS NOT_NAMED 1960-05-13 21:00:00 TS 14.2108 64.5283 main 893 862 P________PP___ IO021960 14.2150 64.5500 -1 14.2150 64.5500 TC 30 14.2025 64.4850 1 6 308
1960132N09070 1960 20 NI AS NOT_NAMED 1960-05-14 00:00:00 TS 14.3886 64.2785 main 862 830 O________OP___ jtwc_io IO021960 14.4000 64.3000 -1 14.4000 64.3000 TC 35 14.3659 64.2356 1 6 302
1960132N09070 1960 20 NI AS NOT_NAMED 1960-05-14 03:00:00 TS 14.5100 64.0283 main 830 806 P________PO___ IO021960 14.5150 64.0424 -1 14.5150 64.0424 TC 35 14.5000 64.0000 2 5 295
1960132N09070 1960 20 NI AS NOT_NAMED 1960-05-14 06:00:00 TS 14.6053 63.7938 main 806 782 O________OP___ jtwc_io IO021960 14.6000 63.8000 -1 14.6000 63.8000 TC 35 14.6158 63.7814 2 5 295
1960132N09070 1960 20 NI AS NOT_NAMED 1960-05-14 09:00:00 TS 14.7108 63.5875 main 782 758 P________PP___ IO021960 14.7150 63.5925 -1 14.7150 63.5925 TC 35 14.7024 63.5774 2 4 295
1960132N09070 1960 20 NI AS NOT_NAMED 1960-05-14 12:00:00 TS 14.7876 63.3949 main 758 742 O________OP___ jtwc_io IO021960 14.8000 63.4000 -1 14.8000 63.4000 TC 35 14.7627 63.3846 2 4 285
1960132N09070 1960 20 NI AS NOT_NAMED 1960-05-14 15:00:00 TS 14.8100 63.1950 main 742 725 P________PO___ IO021960 14.8150 63.1925 -1 14.8150 63.1925 TC 35 14.8000 63.2000 3 4 273
1960132N09070 1960 20 NI AS NOT_NAMED 1960-05-14 18:00:00 TS 14.8085 63.0073 main 725 717 O________OP___ jtwc_io IO021960 14.8000 63.0000 -1 14.8000 63.0000 TC 35 14.8255 63.0218 3 3 270
1960132N09070 1960 20 NI AS NOT_NAMED 1960-05-14 21:00:00 TS 14.8099 62.8500 main 709 701 P________PP___ IO021960 14.8000 62.8500 -1 14.8000 62.8500 TC 35 14.8299 62.8499 3 3 270
1960132N09070 1960 20 NI AS NOT_NAMED 1960-05-15 00:00:00 TS 14.8064 62.6927 main 701 686 O________OP___ jtwc_io IO021960 14.8000 62.7000 -1 14.8000 62.7000 TC 35 14.8193 62.6781 3 3 269
1960132N09070 1960 20 NI AS NOT_NAMED 1960-05-15 03:00:00 TS 14.8050 62.5050 main 686 670 P________PO___ IO021960 14.8075 62.5075 -1 14.8075 62.5075 TC 35 14.8000 62.5000 3 4 268
1960132N09070 1960 20 NI AS NOT_NAMED 1960-05-15 06:00:00 TS 14.7954 62.3010 main 670 655 O________OP___ jtwc_io IO021960 14.8000 62.3000 -1 14.8000 62.3000 TC 35 14.7863 62.3031 3 4 263
1960132N09070 1960 20 NI AS NOT_NAMED 1960-05-15 09:00:00 TS 14.7550 62.1000 main 655 649 P________PP___ IO021960 14.7500 62.1000 -1 14.7500 62.1000 TC 35 14.7650 62.1000 3 4 258
1960132N09070 1960 20 NI AS NOT_NAMED 1960-05-15 12:00:00 TS 14.7121 61.8990 main 649 635 O________OP___ jtwc_io IO021960 14.7000 61.9000 -1 14.7000 61.9000 TC 35 14.7362 61.8969 3 4 262
1960132N09070 1960 20 NI AS NOT_NAMED 1960-05-15 15:00:00 TS 14.7000 61.6950 main 635 621 P________PO___ IO021960 14.7000 61.6925 -1 14.7000 61.6925 TC 35 14.7000 61.7000 3 4 266
1960132N09070 1960 20 NI AS NOT_NAMED 1960-05-15 18:00:00 TS 14.6857 61.5073 main 621 615 O________OP___ jtwc_io IO021960 14.7000 61.5000 -1 14.7000 61.5000 TC 35 14.6571 61.5219 3 3 260
1960132N09070 1960 20 NI AS NOT_NAMED 1960-05-15 21:00:00 TS 14.6408 61.3500 main 623 611 P________PP___ IO021960 14.6575 61.3500 -1 14.6575 61.3500 TC 35 14.6074 61.3500 3 3 252
1960132N09070 1960 20 NI AS NOT_NAMED 1960-05-16 00:00:00 TS 14.5847 61.1927 main 611 604 O________OP___ jtwc_io IO021960 14.6000 61.2000 -1 14.6000 61.2000 TC 35 14.5540 61.1781 3 4 252
1960132N09070 1960 20 NI AS NOT_NAMED 1960-05-16 03:00:00 TS 14.5333 61.0050 main 608 596 P________PO___ IO021960 14.5500 61.0075 -1 14.5500 61.0075 TC 35 14.5000 61.0000 3 4 255
1960132N09070 1960 20 NI AS NOT_NAMED 1960-05-16 06:00:00 TS 14.4806 60.8010 main 596 590 O________OP___ jtwc_io IO021960 14.5000 60.8000 -1 14.5000 60.8000 TC 35 14.4419 60.8031 3 4 255
1960132N09070 1960 20 NI AS NOT_NAMED 1960-05-16 09:00:00 TS 14.4283 60.6000 main 594 579 P________PP___ IO021960 14.4500 60.6000 -1 14.4500 60.6000 TC 50 14.3850 60.5999 3 4 255
1960132N09070 1960 20 NI AS NOT_NAMED 1960-05-16 12:00:00 TS 14.3785 60.3989 main 579 571 O________OP___ jtwc_io IO021960 14.4000 60.4000 -1 14.4000 60.4000 TC 65 14.3356 60.3968 3 4 256
1960132N09070 1960 20 NI AS NOT_NAMED 1960-05-16 15:00:00 TS 14.3283 60.1950 main 572 557 P________PO___ IO021960 14.3425 60.1925 -1 14.3425 60.1925 TC 65 14.3000 60.2000 4 4 257
1960132N09070 1960 20 NI AS NOT_NAMED 1960-05-16 18:00:00 TS 14.2910 60.0222 main 557 549 O________OP___ jtwc_io IO021960 14.3000 60.0000 -1 14.3000 60.0000 TC 65 14.2730 60.0665 4 3 260
1960132N09070 1960 20 NI AS NOT_NAMED 1960-05-16 21:00:00 TS 14.2772 59.8874 main 549 535 P________PP___ IO021960 14.2849 59.8650 -1 14.2849 59.8650 TC 65 14.2618 59.9323 4 3 270
1960132N09070 1960 20 NI AS NOT_NAMED 1960-05-17 00:00:00 TS 14.2899 59.7190 main 535 521 O________OP___ jtwc_io IO021960 14.3000 59.7000 -1 14.3000 59.7000 TC 65 14.2697 59.7570 4 4 277
1960132N09070 1960 20 NI AS NOT_NAMED 1960-05-17 03:00:00 TS 14.3283 59.4683 main 521 486 P________PO___ IO021960 14.3424 59.4525 -1 14.3424 59.4525 TC 65 14.3000 59.5000 4 6 279
1960132N09070 1960 20 NI AS NOT_NAMED 1960-05-17 06:00:00 TS 14.3860 59.0998 main 486 456 O________OP___ jtwc_io IO021960 14.4000 59.1000 -1 14.4000 59.1000 TC 65 14.3580 59.0993 4 8 278
1960132N09070 1960 20 NI AS NOT_NAMED 1960-05-17 09:00:00 TS 14.4403 58.6209 main 456 421 P________PP___ IO021960 14.4426 58.6224 -1 14.4426 58.6224 TC 65 14.4357 58.6178 4 10 277
1960132N09070 1960 20 NI AS NOT_NAMED 1960-05-17 12:00:00 TS 14.5068 58.1008 main 421 381 O________OP___ jtwc_io IO021960 14.5000 58.1000 -1 14.5000 58.1000 TC 65 14.5205 58.1024 4 10 279
1960132N09070 1960 20 NI AS NOT_NAMED 1960-05-17 15:00:00 TS 14.5999 57.6234 main 381 345 P________PO___ IO021960 14.5999 57.6351 -1 14.5999 57.6351 TC 65 14.6000 57.6000 4 9 281
1960132N09070 1960 20 NI AS NOT_NAMED 1960-05-17 18:00:00 TS 14.6860 57.1790 main 345 321 O________OP___ jtwc_io IO021960 14.7000 57.2000 -1 14.7000 57.2000 TC 65 14.6651 57.1474 4 8 280
1960132N09070 1960 20 NI AS NOT_NAMED 1960-05-17 21:00:00 TS 14.7432 56.7700 main 321 288 P________PP___ IO021960 14.7626 56.7925 -1 14.7626 56.7925 TC 65 14.7173 56.7399 4 8 277
1960132N09070 1960 20 NI AS NOT_NAMED 1960-05-18 00:00:00 TS 14.7805 56.3812 main 288 267 O________OP___ jtwc_io IO021960 14.8000 56.4000 -1 14.8000 56.4000 TC 65 14.7609 56.3625 4 7 274
1960132N09070 1960 20 NI AS NOT_NAMED 1960-05-18 03:00:00 NR 14.8000 56.0000 main 267 __________O___ IO021960 -1 TC 14.8000 56.0000 4 7 273

About IBTrACS Database

This database is a web-friendly format of International Best Track Archive for Climate Stewardship (IBTrACS), a global best track data archive curated by NOAA dating back to 1842.

Updated: 2021-10-08